createdAt,value
2019-02-24T00:00:07.948Z,66.33
2019-02-24T00:02:37.951Z,66.00
2019-02-24T00:05:04.847Z,66.21
2019-02-24T00:07:31.565Z,66.81
2019-02-24T00:09:58.355Z,66.89
2019-02-24T00:12:25.044Z,67.50
2019-02-24T00:14:51.955Z,68.26
2019-02-24T00:17:18.703Z,68.02
2019-02-24T00:19:45.494Z,67.86
2019-02-24T00:22:12.206Z,67.61
2019-02-24T00:24:38.890Z,68.65
2019-02-24T00:27:05.582Z,68.26
2019-02-24T00:29:32.248Z,68.12
2019-02-24T00:31:59.111Z,68.08
2019-02-24T00:34:25.925Z,68.80
2019-02-24T00:36:52.632Z,68.45
2019-02-24T00:39:19.477Z,68.63
2019-02-24T00:41:46.161Z,69.89
2019-02-24T00:44:12.871Z,69.22
2019-02-24T00:46:39.582Z,69.52
2019-02-24T00:49:06.358Z,69.74
2019-02-24T00:51:33.059Z,69.35
2019-02-24T00:53:59.753Z,69.52
2019-02-24T00:56:29.370Z,70.14
2019-02-24T00:58:56.171Z,70.38
2019-02-24T01:01:22.974Z,70.20
2019-02-24T01:03:49.657Z,71.28
2019-02-24T01:06:16.304Z,71.36
2019-02-24T01:08:43.356Z,71.42
2019-02-24T01:11:10.035Z,71.05
2019-02-24T01:13:36.834Z,71.77
2019-02-24T01:16:03.611Z,71.72
2019-02-24T01:18:30.379Z,70.88
2019-02-24T01:20:57.079Z,70.64
2019-02-24T01:23:23.862Z,71.13
2019-02-24T01:25:50.664Z,70.77
2019-02-24T01:28:25.018Z,70.57
2019-02-24T01:30:46.055Z,71.49
2019-02-24T01:33:12.854Z,71.58
2019-02-24T01:35:39.706Z,71.58
2019-02-24T01:38:06.366Z,71.19
2019-02-24T01:40:33.180Z,71.40
2019-02-24T01:42:59.983Z,71.73
2019-02-24T01:45:26.717Z,71.43
2019-02-24T01:47:53.429Z,71.22
2019-02-24T01:50:20.283Z,71.39
2019-02-24T01:52:46.971Z,71.18
2019-02-24T01:55:13.740Z,70.99
2019-02-24T01:57:40.565Z,70.94
2019-02-24T02:00:08.666Z,71.04
2019-02-24T02:02:35.328Z,71.16
2019-02-24T02:05:02.134Z,71.28
2019-02-24T02:07:28.894Z,71.76
2019-02-24T02:09:55.635Z,71.98
2019-02-24T02:12:22.420Z,71.94
2019-02-24T02:14:49.262Z,71.64
2019-02-24T02:17:15.957Z,71.96
2019-02-24T02:19:42.670Z,71.90
2019-02-24T02:22:09.845Z,71.89
2019-02-24T02:24:36.543Z,72.20
2019-02-24T02:27:03.360Z,72.03
2019-02-24T02:29:30.050Z,72.24
2019-02-24T02:31:56.827Z,71.95
2019-02-24T02:34:23.506Z,72.50
2019-02-24T02:36:50.131Z,72.66
2019-02-24T02:39:17.061Z,72.37
2019-02-24T02:41:43.937Z,72.77
2019-02-24T02:44:10.569Z,72.24
2019-02-24T02:46:37.295Z,72.79
2019-02-24T02:49:04.650Z,72.47
2019-02-24T02:51:31.385Z,73.04
2019-02-24T02:53:58.096Z,72.93
2019-02-24T02:56:24.809Z,72.79
2019-02-24T02:58:54.313Z,72.78
2019-02-24T03:01:20.338Z,73.79
2019-02-24T03:03:47.104Z,73.69
2019-02-24T03:06:42.416Z,73.73
2019-02-24T03:09:10.407Z,74.14
2019-02-24T03:11:37.175Z,74.04
2019-02-24T03:14:03.915Z,74.53
2019-02-24T03:16:30.655Z,74.63
2019-02-24T03:18:57.484Z,74.60
2019-02-24T03:21:24.302Z,74.29
2019-02-24T03:23:51.008Z,73.97
2019-02-24T03:26:17.811Z,74.23
2019-02-24T03:28:44.588Z,73.94
2019-02-24T03:31:11.257Z,73.87
2019-02-24T03:33:38.083Z,73.98
2019-02-24T03:36:04.843Z,73.89
2019-02-24T03:38:31.557Z,73.48
2019-02-24T03:40:58.278Z,73.78
2019-02-24T03:43:25.118Z,73.92
2019-02-24T03:45:51.813Z,74.05
2019-02-24T03:48:18.692Z,74.39
2019-02-24T03:50:45.388Z,74.52
2019-02-24T03:53:12.515Z,74.51
2019-02-24T03:55:39.435Z,74.86
2019-02-24T03:58:06.132Z,74.93
2019-02-24T04:00:32.955Z,74.64
2019-02-24T04:02:59.635Z,74.48
2019-02-24T04:05:26.549Z,74.52
2019-02-24T04:07:53.344Z,74.51
2019-02-24T04:10:20.093Z,74.09
2019-02-24T04:12:46.840Z,74.46
2019-02-24T04:15:13.634Z,74.58
2019-02-24T04:17:40.359Z,74.58
2019-02-24T04:20:07.123Z,74.27
2019-02-24T04:22:34.159Z,74.29
2019-02-24T04:25:01.026Z,74.45
2019-02-24T04:27:28.959Z,74.17
2019-02-24T04:29:55.799Z,74.49
2019-02-24T04:32:22.512Z,74.71
2019-02-24T04:34:49.247Z,74.59
2019-02-24T04:37:16.030Z,74.29
2019-02-24T04:39:42.820Z,74.08
2019-02-24T04:42:09.745Z,74.09
2019-02-24T04:44:36.704Z,74.21
2019-02-24T04:47:03.605Z,73.99
2019-02-24T04:49:30.410Z,74.18
2019-02-24T04:51:57.144Z,74.09
2019-02-24T04:54:23.911Z,74.30
2019-02-24T04:56:50.628Z,74.31
2019-02-24T04:59:17.340Z,73.96
2019-02-24T05:01:44.162Z,73.86
2019-02-24T05:04:10.969Z,74.08
2019-02-24T05:06:37.665Z,74.22
2019-02-24T05:09:04.602Z,74.77
2019-02-24T05:11:31.298Z,74.54
2019-02-24T05:13:58.007Z,74.70
2019-02-24T05:16:24.773Z,74.56
2019-02-24T05:18:51.466Z,74.77
2019-02-24T05:21:18.481Z,74.78
2019-02-24T05:23:45.069Z,75.03
2019-02-24T05:26:11.985Z,75.16
2019-02-24T05:28:38.747Z,74.95
2019-02-24T05:31:05.549Z,74.98
2019-02-24T05:33:32.349Z,75.07
2019-02-24T05:35:59.116Z,74.97
2019-02-24T05:38:25.841Z,74.62
2019-02-24T05:40:52.552Z,74.51
2019-02-24T05:43:19.410Z,74.87
2019-02-24T05:45:46.200Z,74.88
2019-02-24T05:48:12.894Z,74.76
2019-02-24T05:50:39.646Z,75.05
2019-02-24T05:53:06.457Z,74.80
2019-02-24T05:55:33.239Z,74.84
2019-02-24T05:57:59.927Z,74.70
2019-02-24T06:00:26.712Z,74.64
2019-02-24T06:02:53.378Z,74.67
2019-02-24T06:05:20.236Z,74.83
2019-02-24T06:07:47.111Z,74.83
2019-02-24T06:10:14.348Z,74.98
2019-02-24T06:12:41.377Z,74.82
2019-02-24T06:15:08.249Z,74.84
2019-02-24T06:17:35.096Z,74.72
2019-02-24T06:20:01.931Z,74.77
2019-02-24T06:22:28.743Z,74.82
2019-02-24T06:24:55.454Z,74.50
2019-02-24T06:27:22.174Z,74.37
2019-02-24T06:29:49.327Z,74.38
2019-02-24T06:32:16.005Z,74.62
2019-02-24T06:34:42.760Z,74.66
2019-02-24T06:37:09.497Z,74.49
2019-02-24T06:39:36.169Z,74.19
2019-02-24T06:42:02.860Z,73.75
2019-02-24T06:44:29.564Z,73.00
2019-02-24T06:46:58.277Z,73.02
2019-02-24T06:49:25.206Z,72.85
2019-02-24T06:51:51.916Z,72.42
2019-02-24T06:54:18.851Z,71.37
2019-02-24T06:56:45.647Z,70.40
2019-02-24T06:59:12.450Z,69.29
2019-02-24T07:01:40.422Z,69.91
2019-02-24T07:04:07.316Z,69.99
2019-02-24T07:06:34.046Z,69.50
2019-02-24T07:09:01.291Z,67.88
2019-02-24T07:11:27.994Z,67.57
2019-02-24T07:13:54.727Z,67.06
2019-02-24T07:16:21.522Z,65.41
2019-02-24T07:18:48.313Z,64.82
2019-02-24T07:21:15.090Z,63.80
2019-02-24T07:23:42.387Z,65.30
2019-02-24T07:26:09.221Z,62.44
2019-02-24T07:28:35.991Z,62.48
2019-02-24T07:31:02.835Z,63.58
2019-02-24T07:33:29.611Z,61.91
2019-02-24T07:35:56.335Z,62.36
2019-02-24T07:38:22.999Z,61.77
2019-02-24T07:40:49.716Z,61.12
2019-02-24T07:43:16.408Z,60.77
2019-02-24T07:45:43.108Z,59.74
2019-02-24T07:48:09.833Z,60.16
2019-02-24T07:50:36.505Z,59.69
2019-02-24T07:53:03.328Z,59.85
2019-02-24T07:55:30.035Z,59.70
2019-02-24T07:57:56.795Z,58.75
2019-02-24T08:00:31.690Z,58.71
2019-02-24T08:02:52.214Z,58.50
2019-02-24T08:05:18.835Z,58.50
2019-02-24T08:07:45.630Z,57.65
2019-02-24T08:10:12.477Z,56.48
2019-02-24T08:12:39.367Z,54.49
2019-02-24T08:15:06.404Z,53.86
2019-02-24T08:17:33.115Z,52.90
2019-02-24T08:19:59.895Z,53.56
2019-02-24T08:22:26.567Z,53.08
2019-02-24T08:24:53.291Z,54.28
2019-02-24T08:27:20.004Z,54.47
2019-02-24T08:29:46.981Z,53.33
2019-02-24T08:32:13.749Z,50.90
2019-02-24T08:34:40.473Z,49.70
2019-02-24T08:37:07.117Z,47.09
2019-02-24T08:39:33.766Z,47.49
2019-02-24T08:42:00.392Z,46.74
2019-02-24T08:44:27.102Z,42.78
2019-02-24T08:46:54.029Z,39.05
2019-02-24T08:49:20.695Z,33.98
2019-02-24T08:51:47.544Z,34.10
2019-02-24T08:54:14.341Z,33.40
2019-02-24T08:56:41.005Z,32.39
2019-02-24T08:59:07.699Z,32.77
2019-02-24T09:01:34.474Z,31.26
2019-02-24T09:04:01.067Z,30.84
2019-02-24T09:06:27.734Z,30.28
2019-02-24T09:08:54.558Z,30.20
2019-02-24T09:11:21.218Z,30.04
2019-02-24T09:13:48.073Z,29.17
2019-02-24T09:16:14.839Z,29.04
2019-02-24T09:18:41.715Z,28.97
2019-02-24T09:21:08.432Z,28.02
2019-02-24T09:23:35.187Z,28.23
2019-02-24T09:26:01.986Z,29.36
2019-02-24T09:28:28.832Z,30.58
2019-02-24T09:31:00.772Z,29.43
2019-02-24T09:33:24.538Z,29.76
2019-02-24T09:35:51.815Z,31.40
2019-02-24T09:38:19.660Z,32.35
2019-02-24T09:40:46.431Z,32.45
2019-02-24T09:43:13.126Z,33.62
2019-02-24T09:45:39.929Z,32.83
2019-02-24T09:48:06.617Z,31.79
2019-02-24T09:50:34.444Z,30.30
2019-02-24T09:53:01.156Z,29.33
2019-02-24T09:55:27.882Z,30.23
2019-02-24T09:57:54.768Z,29.69
2019-02-24T10:00:22.106Z,28.94
2019-02-24T10:02:48.970Z,28.55
2019-02-24T10:05:15.696Z,28.77
2019-02-24T10:07:43.662Z,28.74
2019-02-24T10:10:10.613Z,28.95
2019-02-24T10:12:37.297Z,29.20
2019-02-24T10:15:04.226Z,30.18
2019-02-24T10:17:32.916Z,30.91
2019-02-24T10:19:59.670Z,31.37
2019-02-24T10:22:26.498Z,29.39
2019-02-24T10:24:59.110Z,31.19
2019-02-24T10:27:25.797Z,31.42
2019-02-24T10:29:52.621Z,31.69
2019-02-24T10:32:19.417Z,32.41
2019-02-24T10:34:46.201Z,31.83
2019-02-24T10:37:13.068Z,32.65
2019-02-24T10:39:39.771Z,33.30
2019-02-24T10:42:06.542Z,33.56
2019-02-24T10:44:33.274Z,33.74
2019-02-24T10:47:02.143Z,33.10
2019-02-24T10:49:28.900Z,32.53
2019-02-24T10:51:55.904Z,32.61
2019-02-24T10:54:22.704Z,32.97
2019-02-24T10:56:49.574Z,31.56
2019-02-24T10:59:17.000Z,32.36
2019-02-24T11:01:44.722Z,31.05
2019-02-24T11:04:11.450Z,30.71
2019-02-24T11:06:39.196Z,29.60
2019-02-24T11:09:06.219Z,29.72
2019-02-24T11:11:40.922Z,29.82
2019-02-24T11:14:07.676Z,28.33
2019-02-24T11:16:34.390Z,30.26
2019-02-24T11:19:01.268Z,31.32
2019-02-24T11:21:28.056Z,32.27
2019-02-24T11:23:55.228Z,32.09
2019-02-24T11:26:22.050Z,33.23
2019-02-24T11:28:49.023Z,33.03
2019-02-24T11:31:15.892Z,32.59
2019-02-24T11:33:42.743Z,32.31
2019-02-24T11:36:09.567Z,30.81
2019-02-24T11:38:36.323Z,30.74
2019-02-24T11:41:03.130Z,29.83
2019-02-24T11:43:29.828Z,29.97
2019-02-24T11:45:57.086Z,30.28
2019-02-24T11:48:25.531Z,29.12
2019-02-24T11:50:52.653Z,31.11
2019-02-24T11:53:19.541Z,30.96
2019-02-24T11:56:06.366Z,31.80
2019-02-24T11:58:33.307Z,29.87
2019-02-24T12:01:00.742Z,30.32
2019-02-24T12:03:27.857Z,30.07
2019-02-24T12:05:55.270Z,29.05
2019-02-24T12:08:22.541Z,28.60
2019-02-24T12:10:49.854Z,29.42
2019-02-24T12:13:18.786Z,29.31
2019-02-24T12:15:46.058Z,29.15
2019-02-24T12:18:13.106Z,29.32
2019-02-24T12:20:40.064Z,29.14
2019-02-24T12:23:07.527Z,30.36
2019-02-24T12:25:37.132Z,29.80
2019-02-24T12:28:04.106Z,30.83
2019-02-24T12:30:31.342Z,31.34
2019-02-24T12:32:58.564Z,30.64
2019-02-24T12:35:25.527Z,31.17
2019-02-24T12:37:52.898Z,31.63
2019-02-24T12:40:19.962Z,30.75
2019-02-24T12:42:46.996Z,30.49
2019-02-24T12:45:13.937Z,29.96
2019-02-24T12:47:40.904Z,30.69
2019-02-24T12:50:08.946Z,29.85
2019-02-24T12:52:35.935Z,29.97
2019-02-24T12:55:03.069Z,28.01
2019-02-24T12:57:38.866Z,28.06
2019-02-24T13:00:10.204Z,28.72
2019-02-24T13:02:37.297Z,28.15
2019-02-24T13:05:04.480Z,27.10
2019-02-24T13:07:31.648Z,26.54
2019-02-24T13:09:59.128Z,26.28
2019-02-24T13:12:26.201Z,26.88
2019-02-24T13:14:53.278Z,26.94
2019-02-24T13:17:20.265Z,27.40
2019-02-24T13:19:47.216Z,27.23
2019-02-24T13:22:14.260Z,27.40
2019-02-24T13:24:41.433Z,26.39
2019-02-24T13:27:08.620Z,25.72
2019-02-24T13:29:35.638Z,25.88
2019-02-24T13:32:02.595Z,26.15
2019-02-24T13:34:30.789Z,26.49
2019-02-24T13:36:58.193Z,26.59
2019-02-24T13:39:25.216Z,27.00
2019-02-24T13:41:52.319Z,26.86
2019-02-24T13:44:19.486Z,28.14
2019-02-24T13:46:46.413Z,27.34
2019-02-24T13:49:13.506Z,28.00
2019-02-24T13:51:40.376Z,27.84
2019-02-24T13:54:08.092Z,28.01
2019-02-24T13:56:34.774Z,28.44
2019-02-24T13:59:01.575Z,28.15
2019-02-24T14:01:28.488Z,29.19
2019-02-24T14:03:55.283Z,29.31
2019-02-24T14:06:22.158Z,30.25
2019-02-24T14:08:48.860Z,29.48
2019-02-24T14:11:15.567Z,29.95
2019-02-24T14:13:42.246Z,28.74
2019-02-24T14:16:08.896Z,28.37
2019-02-24T14:18:35.723Z,28.79
2019-02-24T14:21:02.528Z,29.97
2019-02-24T14:23:29.398Z,29.56
2019-02-24T14:25:56.118Z,31.20
2019-02-24T14:28:23.112Z,30.53
2019-02-24T14:30:49.791Z,32.34
2019-02-24T14:33:16.471Z,30.89
2019-02-24T14:35:43.141Z,30.12
2019-02-24T14:40:37.701Z,29.98
2019-02-24T14:43:04.420Z,30.16
2019-02-24T14:45:31.207Z,31.00
2019-02-24T14:47:57.917Z,29.98
2019-02-24T14:50:24.646Z,30.17
2019-02-24T14:52:51.475Z,30.49
2019-02-24T14:55:18.256Z,30.42
2019-02-24T14:57:44.950Z,31.12
2019-02-24T15:00:12.132Z,30.20
2019-02-24T15:02:42.398Z,31.40
2019-02-24T15:05:08.058Z,31.95
2019-02-24T15:07:34.751Z,31.53
2019-02-24T15:10:01.442Z,32.18
2019-02-24T15:12:28.120Z,31.59
2019-02-24T15:14:54.900Z,31.82
2019-02-24T15:17:21.742Z,30.80
2019-02-24T15:19:48.526Z,31.88
2019-02-24T15:22:15.396Z,31.25
2019-02-24T15:24:42.192Z,31.01
2019-02-24T15:27:09.021Z,32.07
2019-02-24T15:29:35.889Z,32.65
2019-02-24T15:32:02.630Z,32.63
2019-02-24T15:34:29.657Z,32.20
2019-02-24T15:36:56.646Z,32.32
2019-02-24T15:39:23.710Z,33.26
2019-02-24T15:41:50.585Z,32.44
2019-02-24T15:44:17.292Z,33.35
2019-02-24T15:46:45.325Z,34.28
2019-02-24T15:49:13.036Z,33.47
2019-02-24T15:51:39.931Z,33.18
2019-02-24T15:54:06.847Z,34.09
2019-02-24T15:56:33.524Z,33.80
2019-02-24T15:59:00.320Z,34.01
2019-02-24T16:01:27.100Z,35.55
2019-02-24T16:03:53.965Z,34.93
2019-02-24T16:06:20.559Z,36.89
2019-02-24T16:08:47.370Z,36.65
2019-02-24T16:11:14.248Z,36.34
2019-02-24T16:13:42.043Z,36.24
2019-02-24T16:16:08.716Z,36.72
2019-02-24T16:18:35.502Z,36.53
2019-02-24T16:21:02.197Z,36.99
2019-02-24T16:23:28.907Z,38.17
2019-02-24T16:25:57.269Z,38.24
2019-02-24T16:28:23.946Z,37.76
2019-02-24T16:30:50.711Z,37.94
2019-02-24T16:33:17.492Z,37.95
2019-02-24T16:35:44.405Z,38.20
2019-02-24T16:38:11.092Z,38.82
2019-02-24T16:40:41.107Z,39.44
2019-02-24T16:43:07.840Z,39.55
2019-02-24T16:45:34.659Z,39.62
2019-02-24T16:48:01.552Z,39.83
2019-02-24T16:50:28.417Z,40.21
2019-02-24T16:52:55.196Z,41.63
2019-02-24T16:55:22.141Z,41.75
2019-02-24T16:57:50.107Z,42.30
2019-02-24T17:00:17.949Z,42.19
2019-02-24T17:02:51.049Z,42.35
2019-02-24T17:05:17.940Z,42.96
2019-02-24T17:07:44.792Z,43.60
2019-02-24T17:10:12.500Z,43.78
2019-02-24T17:12:39.373Z,44.02
2019-02-24T17:15:07.309Z,44.46
2019-02-24T17:17:34.000Z,43.17
2019-02-24T17:20:01.879Z,44.96
2019-02-24T17:22:28.806Z,44.64
2019-02-24T17:24:55.635Z,45.40
2019-02-24T17:27:22.391Z,45.27
2019-02-24T17:29:49.132Z,45.42
2019-02-24T17:32:15.951Z,45.93
2019-02-24T17:34:42.650Z,46.22
2019-02-24T17:37:09.570Z,47.72
2019-02-24T17:39:36.369Z,47.91
2019-02-24T17:42:03.110Z,47.92
2019-02-24T17:44:31.842Z,47.73
2019-02-24T17:46:58.651Z,48.52
2019-02-24T17:49:25.540Z,48.72
2019-02-24T17:51:53.322Z,48.96
2019-02-24T17:54:20.367Z,50.51
2019-02-24T17:56:47.240Z,51.23
2019-02-24T17:59:13.911Z,49.79
2019-02-24T18:01:40.750Z,50.06
2019-02-24T18:04:07.414Z,50.21
2019-02-24T18:06:34.195Z,50.22
2019-02-24T18:09:00.995Z,50.40
2019-02-24T18:11:27.745Z,50.63
2019-02-24T18:13:54.593Z,52.65
2019-02-24T18:16:21.474Z,51.22
2019-02-24T18:18:48.284Z,51.26
2019-02-24T18:21:15.105Z,51.62
2019-02-24T18:23:42.175Z,51.62
2019-02-24T18:26:10.024Z,52.87
2019-02-24T18:28:36.723Z,53.02
2019-02-24T18:31:03.831Z,53.34
2019-02-24T18:33:30.634Z,53.57
2019-02-24T18:35:57.485Z,53.14
2019-02-24T18:38:24.389Z,53.52
2019-02-24T18:40:51.066Z,54.42
2019-02-24T18:43:17.863Z,54.20
2019-02-24T18:45:44.635Z,54.96
2019-02-24T18:48:11.265Z,54.78
2019-02-24T18:50:37.990Z,56.31
2019-02-24T18:53:06.399Z,55.10
2019-02-24T18:55:33.354Z,54.97
2019-02-24T18:58:00.150Z,56.09
2019-02-24T19:05:17.258Z,55.52
2019-02-24T19:07:43.935Z,55.58
2019-02-24T19:10:12.595Z,57.34
2019-02-24T19:12:40.476Z,57.55
2019-02-24T19:15:09.157Z,56.82
2019-02-24T19:17:36.205Z,57.21
2019-02-24T19:20:03.629Z,57.74
2019-02-24T19:22:30.396Z,58.37
2019-02-24T19:24:57.291Z,57.98
2019-02-24T19:27:24.256Z,58.01
2019-02-24T19:29:51.046Z,58.13
2019-02-24T19:32:17.776Z,58.09
2019-02-24T19:34:44.493Z,58.19
2019-02-24T19:37:11.175Z,58.57
2019-02-24T19:39:37.868Z,58.31
2019-02-24T19:42:04.692Z,59.17
2019-02-24T19:44:31.523Z,58.64
2019-02-24T19:46:58.388Z,59.48
2019-02-24T19:49:25.242Z,59.80
2019-02-24T19:51:51.937Z,60.59
2019-02-24T19:54:18.651Z,59.97
2019-02-24T19:56:45.513Z,60.20
2019-02-24T19:59:12.324Z,60.82
2019-02-24T20:01:39.043Z,60.53
2019-02-24T20:04:05.880Z,60.59
2019-02-24T20:06:32.794Z,60.51
2019-02-24T20:08:59.486Z,60.54
2019-02-24T20:11:26.237Z,60.48
2019-02-24T20:13:53.018Z,61.29
2019-02-24T20:16:19.833Z,61.30
2019-02-24T20:18:46.769Z,61.22
2019-02-24T20:21:13.446Z,61.18
2019-02-24T20:23:40.097Z,62.16
2019-02-24T20:26:06.773Z,61.87
2019-02-24T20:28:33.539Z,61.68
2019-02-24T20:31:00.287Z,61.68
2019-02-24T20:33:26.937Z,62.02
2019-02-24T20:35:53.537Z,62.23
2019-02-24T20:38:20.259Z,62.67
2019-02-24T20:40:47.139Z,62.92
2019-02-24T20:43:14.263Z,62.54
2019-02-24T20:45:41.111Z,63.43
2019-02-24T20:48:08.162Z,63.07
2019-02-24T20:50:35.051Z,62.87
2019-02-24T20:53:01.873Z,62.99
2019-02-24T20:55:28.563Z,63.84
2019-02-24T20:57:56.431Z,63.57
2019-02-24T21:00:25.775Z,63.71
2019-02-24T21:02:52.643Z,63.88
2019-02-24T21:05:19.515Z,64.59
2019-02-24T21:07:46.226Z,64.59
2019-02-24T21:10:13.281Z,64.36
2019-02-24T21:12:41.143Z,64.82
2019-02-24T21:15:08.957Z,64.69
2019-02-24T21:17:36.672Z,65.32
2019-02-24T21:20:04.648Z,64.93
2019-02-24T21:22:31.519Z,64.67
2019-02-24T21:24:58.307Z,64.77
2019-02-24T21:27:25.014Z,64.89
2019-02-24T21:29:51.913Z,65.00
2019-02-24T21:32:18.821Z,65.32
2019-02-24T21:34:46.549Z,65.56
2019-02-24T21:37:13.547Z,65.35
2019-02-24T21:39:40.379Z,66.10
2019-02-24T21:42:08.113Z,65.62
2019-02-24T21:44:35.174Z,65.78
2019-02-24T21:47:01.949Z,65.94
2019-02-24T21:49:28.888Z,66.22
2019-02-24T21:51:55.723Z,65.94
2019-02-24T21:54:22.507Z,66.23
2019-02-24T21:56:51.749Z,66.30
2019-02-24T21:59:20.613Z,66.67
2019-02-24T22:01:47.994Z,67.49
2019-02-24T22:04:14.824Z,67.44
2019-02-24T22:06:41.978Z,68.12
2019-02-24T22:09:09.723Z,68.23
2019-02-24T22:11:36.435Z,67.96
2019-02-24T22:14:03.581Z,68.34
2019-02-24T22:16:30.389Z,67.90
2019-02-24T22:18:57.244Z,68.00
2019-02-24T22:21:24.079Z,68.48
2019-02-24T22:23:51.858Z,68.98
2019-02-24T22:26:18.700Z,68.06
2019-02-24T22:28:45.561Z,67.80
2019-02-24T22:31:12.387Z,68.33
2019-02-24T22:33:39.126Z,68.02
2019-02-24T22:36:06.942Z,68.21
2019-02-24T22:38:34.690Z,68.25
2019-02-24T22:41:01.452Z,68.43
2019-02-24T22:43:28.098Z,69.51
2019-02-24T22:45:54.924Z,69.41
2019-02-24T22:48:21.760Z,68.72
2019-02-24T22:50:48.513Z,68.88
2019-02-24T22:53:15.302Z,69.08
2019-02-24T22:55:41.996Z,69.40
2019-02-24T22:58:08.920Z,68.92
2019-02-24T23:00:53.037Z,68.84
2019-02-24T23:03:19.836Z,68.72
2019-02-24T23:05:46.738Z,68.50
2019-02-24T23:08:13.415Z,68.73
2019-02-24T23:10:40.225Z,68.94
2019-02-24T23:13:07.001Z,69.01
2019-02-24T23:15:33.834Z,68.89
2019-02-24T23:18:00.506Z,69.28
2019-02-24T23:20:27.163Z,69.11
2019-02-24T23:22:53.994Z,69.88
2019-02-24T23:25:20.661Z,70.21
2019-02-24T23:27:47.313Z,70.29
2019-02-24T23:30:14.167Z,70.51
2019-02-24T23:32:40.998Z,70.10
2019-02-24T23:35:07.773Z,70.09
2019-02-24T23:37:34.427Z,69.82
2019-02-24T23:40:01.126Z,70.02
2019-02-24T23:42:27.855Z,70.05
2019-02-24T23:44:54.511Z,70.31
2019-02-24T23:47:21.187Z,70.03
2019-02-24T23:49:48.004Z,70.26
2019-02-24T23:52:14.674Z,70.76
2019-02-24T23:54:41.624Z,70.26
2019-02-24T23:57:08.291Z,70.70
2019-02-24T23:59:35.089Z,70.68
